sensor_id;sensor_type;location;lat;lon;timestamp;P1;durP1;ratioP1;P2;durP2;ratioP2
38123;SDS011;23934;47.998;9.832;2023-06-26T00:00:14;11.90;;;5.40;;
38123;SDS011;23934;47.998;9.832;2023-06-26T00:02:40;13.50;;;4.22;;
38123;SDS011;23934;47.998;9.832;2023-06-26T00:05:06;13.23;;;5.25;;
38123;SDS011;23934;47.998;9.832;2023-06-26T00:07:32;14.25;;;5.20;;
38123;SDS011;23934;47.998;9.832;2023-06-26T00:10:04;13.73;;;5.68;;
38123;SDS011;23934;47.998;9.832;2023-06-26T00:12:31;10.40;;;5.07;;
38123;SDS011;23934;47.998;9.832;2023-06-26T00:14:57;12.65;;;5.00;;
38123;SDS011;23934;47.998;9.832;2023-06-26T00:17:23;13.48;;;5.07;;
38123;SDS011;23934;47.998;9.832;2023-06-26T00:19:49;10.27;;;5.03;;
38123;SDS011;23934;47.998;9.832;2023-06-26T00:22:15;14.13;;;4.80;;
38123;SDS011;23934;47.998;9.832;2023-06-26T00:24:41;12.90;;;4.75;;
38123;SDS011;23934;47.998;9.832;2023-06-26T00:27:07;9.55;;;4.20;;
38123;SDS011;23934;47.998;9.832;2023-06-26T00:29:34;9.82;;;3.78;;
38123;SDS011;23934;47.998;9.832;2023-06-26T00:32:00;13.60;;;5.30;;
38123;SDS011;23934;47.998;9.832;2023-06-26T00:34:26;15.07;;;3.92;;
38123;SDS011;23934;47.998;9.832;2023-06-26T00:36:52;8.18;;;3.97;;
38123;SDS011;23934;47.998;9.832;2023-06-26T00:39:18;14.30;;;4.60;;
38123;SDS011;23934;47.998;9.832;2023-06-26T00:41:44;11.73;;;4.57;;
38123;SDS011;23934;47.998;9.832;2023-06-26T00:44:10;17.20;;;5.32;;
38123;SDS011;23934;47.998;9.832;2023-06-26T00:46:36;11.48;;;4.90;;
38123;SDS011;23934;47.998;9.832;2023-06-26T00:49:02;15.68;;;5.10;;
38123;SDS011;23934;47.998;9.832;2023-06-26T00:51:29;15.85;;;5.60;;
38123;SDS011;23934;47.998;9.832;2023-06-26T00:53:56;14.25;;;5.68;;
38123;SDS011;23934;47.998;9.832;2023-06-26T00:56:22;19.15;;;6.72;;
38123;SDS011;23934;47.998;9.832;2023-06-26T00:58:48;17.38;;;5.45;;
38123;SDS011;23934;47.998;9.832;2023-06-26T01:01:14;17.92;;;6.35;;
38123;SDS011;23934;47.998;9.832;2023-06-26T01:03:43;15.80;;;5.78;;
38123;SDS011;23934;47.998;9.832;2023-06-26T01:06:09;19.17;;;6.40;;
38123;SDS011;23934;47.998;9.832;2023-06-26T01:08:36;10.60;;;5.05;;
38123;SDS011;23934;47.998;9.832;2023-06-26T01:11:03;13.05;;;5.90;;
38123;SDS011;23934;47.998;9.832;2023-06-26T01:13:29;22.73;;;5.85;;
38123;SDS011;23934;47.998;9.832;2023-06-26T01:15:55;12.68;;;5.13;;
38123;SDS011;23934;47.998;9.832;2023-06-26T01:18:22;11.82;;;4.82;;
38123;SDS011;23934;47.998;9.832;2023-06-26T01:20:49;13.90;;;5.20;;
38123;SDS011;23934;47.998;9.832;2023-06-26T01:23:17;12.77;;;4.47;;
38123;SDS011;23934;47.998;9.832;2023-06-26T01:25:58;12.90;;;4.78;;
38123;SDS011;23934;47.998;9.832;2023-06-26T01:28:26;10.05;;;4.28;;
38123;SDS011;23934;47.998;9.832;2023-06-26T01:30:53;11.93;;;3.83;;
38123;SDS011;23934;47.998;9.832;2023-06-26T01:33:19;13.18;;;4.53;;
38123;SDS011;23934;47.998;9.832;2023-06-26T01:35:45;14.07;;;4.13;;
38123;SDS011;23934;47.998;9.832;2023-06-26T01:38:15;19.38;;;4.25;;
38123;SDS011;23934;47.998;9.832;2023-06-26T01:40:41;10.23;;;4.75;;
38123;SDS011;23934;47.998;9.832;2023-06-26T01:43:10;8.68;;;3.70;;
38123;SDS011;23934;47.998;9.832;2023-06-26T01:45:39;11.48;;;4.28;;
38123;SDS011;23934;47.998;9.832;2023-06-26T01:48:05;13.38;;;4.22;;
38123;SDS011;23934;47.998;9.832;2023-06-26T01:50:32;10.32;;;3.63;;
38123;SDS011;23934;47.998;9.832;2023-06-26T01:55:36;6.80;;;3.63;;
38123;SDS011;23934;47.998;9.832;2023-06-26T01:58:04;6.72;;;3.72;;
38123;SDS011;23934;47.998;9.832;2023-06-26T02:00:30;9.30;;;3.80;;
38123;SDS011;23934;47.998;9.832;2023-06-26T02:02:57;9.80;;;3.47;;
38123;SDS011;23934;47.998;9.832;2023-06-26T02:05:23;7.57;;;3.78;;
38123;SDS011;23934;47.998;9.832;2023-06-26T02:07:49;7.80;;;3.35;;
38123;SDS011;23934;47.998;9.832;2023-06-26T02:10:16;7.85;;;3.65;;
38123;SDS011;23934;47.998;9.832;2023-06-26T02:12:42;10.52;;;3.85;;
38123;SDS011;23934;47.998;9.832;2023-06-26T02:15:08;10.07;;;3.47;;
38123;SDS011;23934;47.998;9.832;2023-06-26T02:17:34;5.72;;;3.58;;
38123;SDS011;23934;47.998;9.832;2023-06-26T02:20:00;11.00;;;4.43;;
38123;SDS011;23934;47.998;9.832;2023-06-26T02:22:26;9.80;;;4.03;;
38123;SDS011;23934;47.998;9.832;2023-06-26T02:24:53;11.65;;;4.03;;
38123;SDS011;23934;47.998;9.832;2023-06-26T02:27:19;6.28;;;3.03;;
38123;SDS011;23934;47.998;9.832;2023-06-26T02:29:45;9.27;;;3.60;;
38123;SDS011;23934;47.998;9.832;2023-06-26T02:32:11;11.35;;;4.30;;
38123;SDS011;23934;47.998;9.832;2023-06-26T02:34:37;14.75;;;4.38;;
38123;SDS011;23934;47.998;9.832;2023-06-26T02:37:03;17.92;;;4.10;;
38123;SDS011;23934;47.998;9.832;2023-06-26T02:39:32;7.78;;;3.28;;
38123;SDS011;23934;47.998;9.832;2023-06-26T02:41:58;9.75;;;3.58;;
38123;SDS011;23934;47.998;9.832;2023-06-26T02:44:24;9.07;;;4.18;;
38123;SDS011;23934;47.998;9.832;2023-06-26T02:46:50;6.82;;;3.10;;
38123;SDS011;23934;47.998;9.832;2023-06-26T02:49:16;10.43;;;3.70;;
38123;SDS011;23934;47.998;9.832;2023-06-26T02:51:42;9.27;;;3.28;;
38123;SDS011;23934;47.998;9.832;2023-06-26T02:54:08;4.75;;;2.00;;
38123;SDS011;23934;47.998;9.832;2023-06-26T02:56:34;4.63;;;2.97;;
38123;SDS011;23934;47.998;9.832;2023-06-26T02:59:00;6.30;;;2.95;;
38123;SDS011;23934;47.998;9.832;2023-06-26T03:01:26;7.28;;;2.88;;
38123;SDS011;23934;47.998;9.832;2023-06-26T03:03:52;8.43;;;4.00;;
38123;SDS011;23934;47.998;9.832;2023-06-26T03:06:18;12.95;;;3.40;;
38123;SDS011;23934;47.998;9.832;2023-06-26T03:08:44;8.82;;;3.95;;
38123;SDS011;23934;47.998;9.832;2023-06-26T03:11:09;7.68;;;2.47;;
38123;SDS011;23934;47.998;9.832;2023-06-26T03:13:36;5.45;;;2.38;;
38123;SDS011;23934;47.998;9.832;2023-06-26T03:16:03;6.90;;;2.83;;
38123;SDS011;23934;47.998;9.832;2023-06-26T03:18:29;7.22;;;3.05;;
38123;SDS011;23934;47.998;9.832;2023-06-26T03:20:55;9.45;;;3.67;;
38123;SDS011;23934;47.998;9.832;2023-06-26T03:23:22;13.20;;;3.63;;
38123;SDS011;23934;47.998;9.832;2023-06-26T03:25:48;9.70;;;3.65;;
38123;SDS011;23934;47.998;9.832;2023-06-26T03:28:14;8.20;;;3.97;;
38123;SDS011;23934;47.998;9.832;2023-06-26T03:30:40;8.77;;;3.85;;
38123;SDS011;23934;47.998;9.832;2023-06-26T03:33:06;11.35;;;4.35;;
38123;SDS011;23934;47.998;9.832;2023-06-26T03:35:32;8.50;;;3.47;;
38123;SDS011;23934;47.998;9.832;2023-06-26T03:37:58;5.95;;;3.22;;
38123;SDS011;23934;47.998;9.832;2023-06-26T03:40:25;9.43;;;3.97;;
38123;SDS011;23934;47.998;9.832;2023-06-26T03:42:51;6.68;;;3.08;;
38123;SDS011;23934;47.998;9.832;2023-06-26T03:45:17;9.93;;;3.58;;
38123;SDS011;23934;47.998;9.832;2023-06-26T03:47:44;9.70;;;3.30;;
38123;SDS011;23934;47.998;9.832;2023-06-26T03:50:13;7.72;;;3.15;;
38123;SDS011;23934;47.998;9.832;2023-06-26T03:52:39;7.50;;;3.45;;
38123;SDS011;23934;47.998;9.832;2023-06-26T03:55:05;13.93;;;5.18;;
38123;SDS011;23934;47.998;9.832;2023-06-26T03:57:31;13.18;;;5.00;;
38123;SDS011;23934;47.998;9.832;2023-06-26T03:59:57;10.77;;;3.92;;
38123;SDS011;23934;47.998;9.832;2023-06-26T04:02:23;13.55;;;4.43;;
38123;SDS011;23934;47.998;9.832;2023-06-26T04:04:49;8.88;;;4.22;;
38123;SDS011;23934;47.998;9.832;2023-06-26T04:07:15;8.90;;;3.45;;
38123;SDS011;23934;47.998;9.832;2023-06-26T04:09:41;12.48;;;3.67;;
38123;SDS011;23934;47.998;9.832;2023-06-26T04:12:07;10.68;;;3.72;;
38123;SDS011;23934;47.998;9.832;2023-06-26T04:14:33;6.18;;;3.10;;
38123;SDS011;23934;47.998;9.832;2023-06-26T04:16:59;13.27;;;4.07;;
38123;SDS011;23934;47.998;9.832;2023-06-26T04:19:28;19.48;;;4.07;;
38123;SDS011;23934;47.998;9.832;2023-06-26T04:21:53;8.75;;;3.50;;
38123;SDS011;23934;47.998;9.832;2023-06-26T04:24:20;10.90;;;3.72;;
38123;SDS011;23934;47.998;9.832;2023-06-26T04:26:46;7.22;;;3.92;;
38123;SDS011;23934;47.998;9.832;2023-06-26T04:29:12;9.30;;;4.35;;
38123;SDS011;23934;47.998;9.832;2023-06-26T04:31:38;11.00;;;4.70;;
38123;SDS011;23934;47.998;9.832;2023-06-26T04:34:04;9.82;;;4.43;;
38123;SDS011;23934;47.998;9.832;2023-06-26T04:36:30;11.98;;;4.07;;
38123;SDS011;23934;47.998;9.832;2023-06-26T04:38:58;16.75;;;6.38;;
38123;SDS011;23934;47.998;9.832;2023-06-26T04:41:24;14.15;;;5.82;;
38123;SDS011;23934;47.998;9.832;2023-06-26T04:43:50;9.05;;;3.72;;
38123;SDS011;23934;47.998;9.832;2023-06-26T04:46:16;9.65;;;3.85;;
38123;SDS011;23934;47.998;9.832;2023-06-26T04:48:42;12.95;;;4.53;;
38123;SDS011;23934;47.998;9.832;2023-06-26T04:51:09;13.82;;;4.72;;
38123;SDS011;23934;47.998;9.832;2023-06-26T04:53:35;9.13;;;3.95;;
38123;SDS011;23934;47.998;9.832;2023-06-26T04:56:01;15.15;;;5.30;;
38123;SDS011;23934;47.998;9.832;2023-06-26T04:58:27;9.05;;;4.30;;
38123;SDS011;23934;47.998;9.832;2023-06-26T05:00:53;12.98;;;4.53;;
38123;SDS011;23934;47.998;9.832;2023-06-26T05:03:19;8.70;;;4.18;;
38123;SDS011;23934;47.998;9.832;2023-06-26T05:05:45;12.45;;;4.47;;
38123;SDS011;23934;47.998;9.832;2023-06-26T05:08:15;12.23;;;4.35;;
38123;SDS011;23934;47.998;9.832;2023-06-26T05:10:41;11.60;;;3.97;;
38123;SDS011;23934;47.998;9.832;2023-06-26T05:13:07;8.13;;;3.88;;
38123;SDS011;23934;47.998;9.832;2023-06-26T05:15:33;16.05;;;5.25;;
38123;SDS011;23934;47.998;9.832;2023-06-26T05:17:59;12.23;;;4.97;;
38123;SDS011;23934;47.998;9.832;2023-06-26T05:20:25;11.00;;;4.53;;
38123;SDS011;23934;47.998;9.832;2023-06-26T05:22:51;10.55;;;4.78;;
38123;SDS011;23934;47.998;9.832;2023-06-26T05:25:18;7.45;;;3.72;;
38123;SDS011;23934;47.998;9.832;2023-06-26T05:27:46;11.23;;;4.95;;
38123;SDS011;23934;47.998;9.832;2023-06-26T05:30:12;10.82;;;4.65;;
38123;SDS011;23934;47.998;9.832;2023-06-26T05:32:39;12.30;;;4.85;;
38123;SDS011;23934;47.998;9.832;2023-06-26T05:35:05;16.67;;;4.82;;
38123;SDS011;23934;47.998;9.832;2023-06-26T05:37:32;11.30;;;4.75;;
38123;SDS011;23934;47.998;9.832;2023-06-26T05:39:58;12.52;;;5.25;;
38123;SDS011;23934;47.998;9.832;2023-06-26T05:42:24;11.13;;;4.93;;
38123;SDS011;23934;47.998;9.832;2023-06-26T05:44:50;9.27;;;3.95;;
38123;SDS011;23934;47.998;9.832;2023-06-26T05:47:16;12.82;;;4.90;;
38123;SDS011;23934;47.998;9.832;2023-06-26T05:49:42;12.48;;;4.72;;
38123;SDS011;23934;47.998;9.832;2023-06-26T05:52:08;10.40;;;5.13;;
38123;SDS011;23934;47.998;9.832;2023-06-26T05:54:34;13.27;;;5.35;;
38123;SDS011;23934;47.998;9.832;2023-06-26T05:57:00;10.10;;;4.10;;
38123;SDS011;23934;47.998;9.832;2023-06-26T05:59:26;11.40;;;4.25;;
38123;SDS011;23934;47.998;9.832;2023-06-26T06:01:52;12.55;;;5.13;;
38123;SDS011;23934;47.998;9.832;2023-06-26T06:04:19;12.90;;;4.90;;
38123;SDS011;23934;47.998;9.832;2023-06-26T06:06:45;9.93;;;4.75;;
38123;SDS011;23934;47.998;9.832;2023-06-26T06:09:12;10.75;;;4.53;;
38123;SDS011;23934;47.998;9.832;2023-06-26T06:11:38;10.45;;;4.95;;
38123;SDS011;23934;47.998;9.832;2023-06-26T06:14:04;9.27;;;4.60;;
38123;SDS011;23934;47.998;9.832;2023-06-26T06:16:30;8.55;;;4.15;;
38123;SDS011;23934;47.998;9.832;2023-06-26T06:18:56;9.05;;;4.25;;
38123;SDS011;23934;47.998;9.832;2023-06-26T06:21:22;8.02;;;4.13;;
38123;SDS011;23934;47.998;9.832;2023-06-26T06:23:47;9.70;;;4.60;;
38123;SDS011;23934;47.998;9.832;2023-06-26T06:26:13;11.35;;;4.97;;
38123;SDS011;23934;47.998;9.832;2023-06-26T06:28:39;12.00;;;4.82;;
38123;SDS011;23934;47.998;9.832;2023-06-26T06:31:05;11.07;;;5.05;;
38123;SDS011;23934;47.998;9.832;2023-06-26T06:33:31;10.75;;;4.88;;
38123;SDS011;23934;47.998;9.832;2023-06-26T06:35:58;10.38;;;4.97;;
38123;SDS011;23934;47.998;9.832;2023-06-26T06:38:24;9.65;;;5.00;;
38123;SDS011;23934;47.998;9.832;2023-06-26T06:40:50;12.27;;;5.38;;
38123;SDS011;23934;47.998;9.832;2023-06-26T06:43:16;10.38;;;3.92;;
38123;SDS011;23934;47.998;9.832;2023-06-26T06:45:42;10.73;;;5.40;;
38123;SDS011;23934;47.998;9.832;2023-06-26T06:48:08;10.90;;;4.82;;
38123;SDS011;23934;47.998;9.832;2023-06-26T06:50:34;10.45;;;4.75;;
38123;SDS011;23934;47.998;9.832;2023-06-26T06:53:00;12.50;;;3.85;;
38123;SDS011;23934;47.998;9.832;2023-06-26T06:55:26;11.60;;;4.85;;
38123;SDS011;23934;47.998;9.832;2023-06-26T06:57:52;8.75;;;4.22;;
38123;SDS011;23934;47.998;9.832;2023-06-26T07:00:18;12.48;;;5.18;;
38123;SDS011;23934;47.998;9.832;2023-06-26T07:02:45;11.45;;;4.43;;
38123;SDS011;23934;47.998;9.832;2023-06-26T07:05:11;11.63;;;4.60;;
38123;SDS011;23934;47.998;9.832;2023-06-26T07:07:37;13.23;;;4.50;;
38123;SDS011;23934;47.998;9.832;2023-06-26T07:10:05;10.30;;;6.10;;
38123;SDS011;23934;47.998;9.832;2023-06-26T07:12:31;11.55;;;5.15;;
38123;SDS011;23934;47.998;9.832;2023-06-26T07:14:58;11.50;;;4.50;;
38123;SDS011;23934;47.998;9.832;2023-06-26T07:17:24;10.05;;;5.43;;
38123;SDS011;23934;47.998;9.832;2023-06-26T07:19:50;13.95;;;5.35;;
38123;SDS011;23934;47.998;9.832;2023-06-26T07:22:16;11.65;;;5.45;;
38123;SDS011;23934;47.998;9.832;2023-06-26T07:24:44;8.35;;;4.90;;
38123;SDS011;23934;47.998;9.832;2023-06-26T07:27:09;10.05;;;4.70;;
38123;SDS011;23934;47.998;9.832;2023-06-26T07:29:35;11.65;;;5.80;;
38123;SDS011;23934;47.998;9.832;2023-06-26T07:32:02;11.38;;;5.40;;
38123;SDS011;23934;47.998;9.832;2023-06-26T07:34:28;9.25;;;4.90;;
38123;SDS011;23934;47.998;9.832;2023-06-26T07:36:53;8.85;;;4.55;;
38123;SDS011;23934;47.998;9.832;2023-06-26T07:39:19;8.60;;;5.18;;
38123;SDS011;23934;47.998;9.832;2023-06-26T07:41:45;9.18;;;4.88;;
38123;SDS011;23934;47.998;9.832;2023-06-26T07:44:11;11.90;;;4.90;;
38123;SDS011;23934;47.998;9.832;2023-06-26T07:46:37;9.45;;;4.70;;
38123;SDS011;23934;47.998;9.832;2023-06-26T07:49:04;9.65;;;4.60;;
38123;SDS011;23934;47.998;9.832;2023-06-26T07:51:30;8.07;;;4.95;;
38123;SDS011;23934;47.998;9.832;2023-06-26T07:53:56;13.48;;;5.28;;
38123;SDS011;23934;47.998;9.832;2023-06-26T07:56:22;11.05;;;4.85;;
38123;SDS011;23934;47.998;9.832;2023-06-26T07:58:47;14.45;;;5.78;;
38123;SDS011;23934;47.998;9.832;2023-06-26T08:01:13;9.38;;;5.05;;
38123;SDS011;23934;47.998;9.832;2023-06-26T08:03:39;12.10;;;4.93;;
38123;SDS011;23934;47.998;9.832;2023-06-26T08:06:06;13.98;;;5.00;;
38123;SDS011;23934;47.998;9.832;2023-06-26T08:08:32;12.02;;;4.85;;
38123;SDS011;23934;47.998;9.832;2023-06-26T08:10:58;8.07;;;4.55;;
38123;SDS011;23934;47.998;9.832;2023-06-26T08:13:24;10.85;;;5.78;;
38123;SDS011;23934;47.998;9.832;2023-06-26T08:15:50;8.38;;;4.55;;
38123;SDS011;23934;47.998;9.832;2023-06-26T08:18:17;6.82;;;4.32;;
38123;SDS011;23934;47.998;9.832;2023-06-26T08:20:43;9.60;;;4.93;;
38123;SDS011;23934;47.998;9.832;2023-06-26T08:23:09;14.68;;;5.60;;
38123;SDS011;23934;47.998;9.832;2023-06-26T08:25:35;14.20;;;5.80;;
38123;SDS011;23934;47.998;9.832;2023-06-26T08:28:01;11.55;;;4.88;;
38123;SDS011;23934;47.998;9.832;2023-06-26T08:30:27;9.50;;;5.15;;
38123;SDS011;23934;47.998;9.832;2023-06-26T08:32:56;8.15;;;4.45;;
38123;SDS011;23934;47.998;9.832;2023-06-26T08:35:22;11.30;;;5.03;;
38123;SDS011;23934;47.998;9.832;2023-06-26T08:37:48;8.43;;;4.68;;
38123;SDS011;23934;47.998;9.832;2023-06-26T08:40:17;11.70;;;5.35;;
38123;SDS011;23934;47.998;9.832;2023-06-26T08:42:46;9.95;;;4.88;;
38123;SDS011;23934;47.998;9.832;2023-06-26T08:45:12;8.32;;;5.32;;
38123;SDS011;23934;47.998;9.832;2023-06-26T08:47:39;9.93;;;5.45;;
38123;SDS011;23934;47.998;9.832;2023-06-26T08:50:08;11.98;;;5.28;;
38123;SDS011;23934;47.998;9.832;2023-06-26T08:55:06;13.35;;;5.70;;
38123;SDS011;23934;47.998;9.832;2023-06-26T08:57:33;9.68;;;5.13;;
38123;SDS011;23934;47.998;9.832;2023-06-26T08:59:59;10.65;;;5.07;;
38123;SDS011;23934;47.998;9.832;2023-06-26T09:02:26;8.35;;;4.72;;
38123;SDS011;23934;47.998;9.832;2023-06-26T09:04:52;15.98;;;4.43;;
38123;SDS011;23934;47.998;9.832;2023-06-26T09:07:18;10.40;;;5.53;;
38123;SDS011;23934;47.998;9.832;2023-06-26T09:09:44;9.13;;;4.53;;
38123;SDS011;23934;47.998;9.832;2023-06-26T09:12:10;10.60;;;5.05;;
38123;SDS011;23934;47.998;9.832;2023-06-26T09:14:36;7.35;;;4.20;;
38123;SDS011;23934;47.998;9.832;2023-06-26T09:17:03;11.90;;;5.18;;
38123;SDS011;23934;47.998;9.832;2023-06-26T09:19:29;13.43;;;4.55;;
38123;SDS011;23934;47.998;9.832;2023-06-26T09:21:55;7.15;;;4.43;;
38123;SDS011;23934;47.998;9.832;2023-06-26T09:24:21;9.93;;;5.18;;
38123;SDS011;23934;47.998;9.832;2023-06-26T09:26:48;12.70;;;5.47;;
38123;SDS011;23934;47.998;9.832;2023-06-26T09:29:14;7.88;;;5.07;;
38123;SDS011;23934;47.998;9.832;2023-06-26T09:31:41;12.68;;;5.72;;
38123;SDS011;23934;47.998;9.832;2023-06-26T09:34:08;9.30;;;4.88;;
38123;SDS011;23934;47.998;9.832;2023-06-26T09:36:34;15.30;;;5.18;;
38123;SDS011;23934;47.998;9.832;2023-06-26T09:39:04;10.35;;;4.85;;
38123;SDS011;23934;47.998;9.832;2023-06-26T09:41:33;8.65;;;4.68;;
38123;SDS011;23934;47.998;9.832;2023-06-26T09:44:00;10.75;;;4.85;;
38123;SDS011;23934;47.998;9.832;2023-06-26T09:46:27;25.98;;;5.70;;
38123;SDS011;23934;47.998;9.832;2023-06-26T09:48:57;9.95;;;4.90;;
38123;SDS011;23934;47.998;9.832;2023-06-26T09:51:23;11.32;;;5.53;;
38123;SDS011;23934;47.998;9.832;2023-06-26T09:53:50;10.05;;;4.95;;
38123;SDS011;23934;47.998;9.832;2023-06-26T09:56:16;9.75;;;4.88;;
38123;SDS011;23934;47.998;9.832;2023-06-26T09:58:43;10.27;;;5.43;;
38123;SDS011;23934;47.998;9.832;2023-06-26T10:01:09;9.55;;;4.85;;
38123;SDS011;23934;47.998;9.832;2023-06-26T10:03:35;8.30;;;4.80;;
38123;SDS011;23934;47.998;9.832;2023-06-26T10:06:02;8.15;;;4.65;;
38123;SDS011;23934;47.998;9.832;2023-06-26T10:08:28;10.63;;;4.63;;
38123;SDS011;23934;47.998;9.832;2023-06-26T10:10:54;10.45;;;4.88;;
38123;SDS011;23934;47.998;9.832;2023-06-26T10:13:22;8.40;;;4.63;;
38123;SDS011;23934;47.998;9.832;2023-06-26T10:15:48;8.40;;;5.07;;
38123;SDS011;23934;47.998;9.832;2023-06-26T10:18:15;8.18;;;4.90;;
38123;SDS011;23934;47.998;9.832;2023-06-26T10:20:42;11.35;;;5.65;;
38123;SDS011;23934;47.998;9.832;2023-06-26T10:23:10;8.45;;;5.07;;
38123;SDS011;23934;47.998;9.832;2023-06-26T10:25:37;13.48;;;5.03;;
38123;SDS011;23934;47.998;9.832;2023-06-26T10:28:06;8.93;;;5.25;;
38123;SDS011;23934;47.998;9.832;2023-06-26T10:30:34;8.30;;;4.68;;
38123;SDS011;23934;47.998;9.832;2023-06-26T10:33:01;9.85;;;4.88;;
38123;SDS011;23934;47.998;9.832;2023-06-26T10:35:28;9.57;;;5.00;;
38123;SDS011;23934;47.998;9.832;2023-06-26T10:38:00;11.18;;;5.05;;
38123;SDS011;23934;47.998;9.832;2023-06-26T10:40:28;11.25;;;5.05;;
38123;SDS011;23934;47.998;9.832;2023-06-26T10:43:05;10.32;;;4.47;;
38123;SDS011;23934;47.998;9.832;2023-06-26T10:45:33;10.52;;;5.05;;
38123;SDS011;23934;47.998;9.832;2023-06-26T10:48:00;9.25;;;5.13;;
38123;SDS011;23934;47.998;9.832;2023-06-26T10:50:30;10.20;;;4.93;;
38123;SDS011;23934;47.998;9.832;2023-06-26T10:55:51;7.85;;;4.72;;
38123;SDS011;23934;47.998;9.832;2023-06-26T11:03:38;10.60;;;5.15;;
38123;SDS011;23934;47.998;9.832;2023-06-26T11:06:14;9.07;;;4.68;;
38123;SDS011;23934;47.998;9.832;2023-06-26T11:08:44;6.57;;;3.45;;
38123;SDS011;23934;47.998;9.832;2023-06-26T11:11:10;11.45;;;4.32;;
38123;SDS011;23934;47.998;9.832;2023-06-26T11:13:36;6.90;;;3.83;;
38123;SDS011;23934;47.998;9.832;2023-06-26T11:16:03;5.97;;;3.58;;
38123;SDS011;23934;47.998;9.832;2023-06-26T11:18:30;7.53;;;4.07;;
38123;SDS011;23934;47.998;9.832;2023-06-26T11:21:09;7.40;;;4.60;;
38123;SDS011;23934;47.998;9.832;2023-06-26T11:23:36;8.07;;;4.18;;
38123;SDS011;23934;47.998;9.832;2023-06-26T11:26:18;6.55;;;4.00;;
38123;SDS011;23934;47.998;9.832;2023-06-26T11:28:53;7.43;;;3.78;;
38123;SDS011;23934;47.998;9.832;2023-06-26T11:31:26;8.57;;;4.05;;
38123;SDS011;23934;47.998;9.832;2023-06-26T11:33:53;6.88;;;4.00;;
38123;SDS011;23934;47.998;9.832;2023-06-26T11:36:22;7.93;;;4.40;;
38123;SDS011;23934;47.998;9.832;2023-06-26T11:38:56;9.57;;;4.53;;
38123;SDS011;23934;47.998;9.832;2023-06-26T11:41:40;7.82;;;4.53;;
38123;SDS011;23934;47.998;9.832;2023-06-26T11:44:07;6.03;;;4.00;;
38123;SDS011;23934;47.998;9.832;2023-06-26T11:46:37;8.35;;;4.70;;
38123;SDS011;23934;47.998;9.832;2023-06-26T11:49:03;10.15;;;5.15;;
38123;SDS011;23934;47.998;9.832;2023-06-26T11:51:29;11.32;;;4.88;;
38123;SDS011;23934;47.998;9.832;2023-06-26T11:53:55;8.25;;;4.63;;
38123;SDS011;23934;47.998;9.832;2023-06-26T11:56:21;10.55;;;4.55;;
38123;SDS011;23934;47.998;9.832;2023-06-26T12:01:26;8.18;;;4.55;;
38123;SDS011;23934;47.998;9.832;2023-06-26T12:03:57;8.25;;;4.75;;
38123;SDS011;23934;47.998;9.832;2023-06-26T12:06:24;7.90;;;4.80;;
38123;SDS011;23934;47.998;9.832;2023-06-26T12:08:50;8.50;;;4.68;;
38123;SDS011;23934;47.998;9.832;2023-06-26T12:11:16;9.88;;;5.40;;
38123;SDS011;23934;47.998;9.832;2023-06-26T12:13:42;8.80;;;4.97;;
38123;SDS011;23934;47.998;9.832;2023-06-26T12:16:08;8.25;;;4.78;;
38123;SDS011;23934;47.998;9.832;2023-06-26T12:18:35;7.60;;;4.57;;
38123;SDS011;23934;47.998;9.832;2023-06-26T12:21:01;7.40;;;4.28;;
38123;SDS011;23934;47.998;9.832;2023-06-26T12:23:33;10.13;;;5.18;;
38123;SDS011;23934;47.998;9.832;2023-06-26T12:26:17;12.02;;;4.20;;
38123;SDS011;23934;47.998;9.832;2023-06-26T12:28:44;9.60;;;4.82;;
38123;SDS011;23934;47.998;9.832;2023-06-26T12:31:14;7.82;;;4.55;;
38123;SDS011;23934;47.998;9.832;2023-06-26T12:33:43;10.73;;;5.18;;
38123;SDS011;23934;47.998;9.832;2023-06-26T12:36:12;10.18;;;4.70;;
38123;SDS011;23934;47.998;9.832;2023-06-26T12:38:39;7.80;;;4.57;;
38123;SDS011;23934;47.998;9.832;2023-06-26T12:41:05;14.20;;;4.68;;
38123;SDS011;23934;47.998;9.832;2023-06-26T12:43:31;8.02;;;4.85;;
38123;SDS011;23934;47.998;9.832;2023-06-26T12:45:57;8.18;;;4.57;;
38123;SDS011;23934;47.998;9.832;2023-06-26T12:48:38;7.30;;;4.35;;
38123;SDS011;23934;47.998;9.832;2023-06-26T12:51:11;6.97;;;4.18;;
38123;SDS011;23934;47.998;9.832;2023-06-26T12:53:38;12.15;;;5.75;;
38123;SDS011;23934;47.998;9.832;2023-06-26T12:56:07;9.43;;;5.07;;
38123;SDS011;23934;47.998;9.832;2023-06-26T12:58:34;8.35;;;4.93;;
38123;SDS011;23934;47.998;9.832;2023-06-26T13:01:03;8.77;;;4.93;;
38123;SDS011;23934;47.998;9.832;2023-06-26T13:03:30;10.63;;;5.28;;
38123;SDS011;23934;47.998;9.832;2023-06-26T13:05:56;8.30;;;4.75;;
38123;SDS011;23934;47.998;9.832;2023-06-26T13:08:22;8.52;;;4.80;;
38123;SDS011;23934;47.998;9.832;2023-06-26T13:10:48;9.32;;;4.63;;
38123;SDS011;23934;47.998;9.832;2023-06-26T13:13:14;10.48;;;5.25;;
38123;SDS011;23934;47.998;9.832;2023-06-26T13:15:40;8.82;;;4.57;;
38123;SDS011;23934;47.998;9.832;2023-06-26T13:18:06;7.93;;;4.43;;
38123;SDS011;23934;47.998;9.832;2023-06-26T13:20:32;9.02;;;4.88;;
38123;SDS011;23934;47.998;9.832;2023-06-26T13:22:57;9.60;;;4.43;;
38123;SDS011;23934;47.998;9.832;2023-06-26T13:25:23;9.95;;;4.10;;
38123;SDS011;23934;47.998;9.832;2023-06-26T13:27:49;10.20;;;4.40;;
38123;SDS011;23934;47.998;9.832;2023-06-26T13:30:15;12.45;;;4.95;;
38123;SDS011;23934;47.998;9.832;2023-06-26T13:32:42;9.75;;;4.80;;
38123;SDS011;23934;47.998;9.832;2023-06-26T13:35:08;9.90;;;5.15;;
38123;SDS011;23934;47.998;9.832;2023-06-26T13:37:35;9.20;;;4.53;;
38123;SDS011;23934;47.998;9.832;2023-06-26T13:40:01;8.85;;;4.93;;
38123;SDS011;23934;47.998;9.832;2023-06-26T13:42:28;11.35;;;5.03;;
38123;SDS011;23934;47.998;9.832;2023-06-26T13:44:54;9.25;;;5.38;;
38123;SDS011;23934;47.998;9.832;2023-06-26T13:47:20;10.52;;;5.13;;
38123;SDS011;23934;47.998;9.832;2023-06-26T13:49:46;12.32;;;4.65;;
38123;SDS011;23934;47.998;9.832;2023-06-26T13:52:12;9.85;;;4.53;;
38123;SDS011;23934;47.998;9.832;2023-06-26T13:54:38;9.20;;;4.85;;
38123;SDS011;23934;47.998;9.832;2023-06-26T13:57:06;8.85;;;4.65;;
38123;SDS011;23934;47.998;9.832;2023-06-26T13:59:33;13.02;;;6.13;;
38123;SDS011;23934;47.998;9.832;2023-06-26T14:01:59;12.30;;;5.55;;
38123;SDS011;23934;47.998;9.832;2023-06-26T14:04:25;18.10;;;5.32;;
38123;SDS011;23934;47.998;9.832;2023-06-26T14:06:51;11.05;;;5.78;;
38123;SDS011;23934;47.998;9.832;2023-06-26T14:09:17;12.30;;;6.03;;
38123;SDS011;23934;47.998;9.832;2023-06-26T14:11:43;15.18;;;5.13;;
38123;SDS011;23934;47.998;9.832;2023-06-26T14:14:09;12.02;;;5.30;;
38123;SDS011;23934;47.998;9.832;2023-06-26T14:16:35;9.35;;;5.18;;
38123;SDS011;23934;47.998;9.832;2023-06-26T14:19:01;14.80;;;5.57;;
38123;SDS011;23934;47.998;9.832;2023-06-26T14:21:28;13.63;;;5.95;;
38123;SDS011;23934;47.998;9.832;2023-06-26T14:23:54;9.18;;;5.03;;
38123;SDS011;23934;47.998;9.832;2023-06-26T14:26:20;12.13;;;5.93;;
38123;SDS011;23934;47.998;9.832;2023-06-26T14:28:46;6.68;;;4.32;;
38123;SDS011;23934;47.998;9.832;2023-06-26T14:31:12;9.15;;;4.68;;
38123;SDS011;23934;47.998;9.832;2023-06-26T14:33:39;7.90;;;4.50;;
38123;SDS011;23934;47.998;9.832;2023-06-26T14:36:05;9.88;;;4.82;;
38123;SDS011;23934;47.998;9.832;2023-06-26T14:38:31;11.50;;;4.88;;
38123;SDS011;23934;47.998;9.832;2023-06-26T14:40:57;17.30;;;5.18;;
38123;SDS011;23934;47.998;9.832;2023-06-26T14:43:23;14.68;;;5.97;;
38123;SDS011;23934;47.998;9.832;2023-06-26T14:45:49;11.98;;;4.85;;
38123;SDS011;23934;47.998;9.832;2023-06-26T14:48:15;12.00;;;5.05;;
38123;SDS011;23934;47.998;9.832;2023-06-26T14:50:41;10.38;;;4.78;;
38123;SDS011;23934;47.998;9.832;2023-06-26T14:53:07;12.13;;;4.65;;